sensor_id;sensor_type;location;lat;lon;timestamp;pressure;altitude;pressure_sealevel;temperature;humidity
66689;BME280;53587;59.318;18.084;2023-07-20T00:01:12;100257.00;;;22.68;59.78
66689;BME280;53587;59.318;18.084;2023-07-20T00:03:37;100263.38;;;22.69;59.68
66689;BME280;53587;59.318;18.084;2023-07-20T00:06:02;100257.00;;;22.68;58.85
66689;BME280;53587;59.318;18.084;2023-07-20T00:08:29;100254.22;;;22.68;59.23
66689;BME280;53587;59.318;18.084;2023-07-20T00:10:54;100255.03;;;22.69;59.63
66689;BME280;53587;59.318;18.084;2023-07-20T00:13:20;100252.59;;;22.67;59.53
66689;BME280;53587;59.318;18.084;2023-07-20T00:15:46;100252.25;;;22.69;59.64
66689;BME280;53587;59.318;18.084;2023-07-20T00:18:11;100249.47;;;22.69;59.25
66689;BME280;53587;59.318;18.084;2023-07-20T00:20:36;100243.94;;;22.69;59.29
66689;BME280;53587;59.318;18.084;2023-07-20T00:23:01;100250.97;;;22.66;58.86
66689;BME280;53587;59.318;18.084;2023-07-20T00:25:27;100247.53;;;22.70;59.38
66689;BME280;53587;59.318;18.084;2023-07-20T00:27:52;100244.75;;;22.70;58.78
66689;BME280;53587;59.318;18.084;2023-07-20T00:30:17;100251.44;;;22.68;59.39
66689;BME280;53587;59.318;18.084;2023-07-20T00:32:43;100249.47;;;22.69;58.70
66689;BME280;53587;59.318;18.084;2023-07-20T00:35:09;100243.94;;;22.69;59.40
66689;BME280;53587;59.318;18.084;2023-07-20T00:37:34;100249.47;;;22.69;59.04
66689;BME280;53587;59.318;18.084;2023-07-20T00:39:59;100253.09;;;22.70;59.90
66689;BME280;53587;59.318;18.084;2023-07-20T00:42:25;100245.91;;;22.68;59.31
66689;BME280;53587;59.318;18.084;2023-07-20T00:44:50;100243.94;;;22.69;59.07
66689;BME280;53587;59.318;18.084;2023-07-20T00:47:15;100240.34;;;22.68;58.92
66689;BME280;53587;59.318;18.084;2023-07-20T00:49:40;100254.72;;;22.71;59.63
66689;BME280;53587;59.318;18.084;2023-07-20T00:52:06;100244.75;;;22.70;59.53
66689;BME280;53587;59.318;18.084;2023-07-20T00:54:32;100250.31;;;22.70;58.97
66689;BME280;53587;59.318;18.084;2023-07-20T00:56:57;100257.50;;;22.71;59.45
66689;BME280;53587;59.318;18.084;2023-07-20T00:59:23;100250.31;;;22.70;58.62
66689;BME280;53587;59.318;18.084;2023-07-20T01:01:49;100250.31;;;22.70;59.13
66689;BME280;53587;59.318;18.084;2023-07-20T01:04:14;100251.94;;;22.71;58.97
66689;BME280;53587;59.318;18.084;2023-07-20T01:06:45;100250.31;;;22.70;58.81
66689;BME280;53587;59.318;18.084;2023-07-20T01:09:16;100247.53;;;22.70;59.47
66689;BME280;53587;59.318;18.084;2023-07-20T01:11:49;100251.94;;;22.71;58.38
66689;BME280;53587;59.318;18.084;2023-07-20T01:14:18;100250.31;;;22.70;58.38
66689;BME280;53587;59.318;18.084;2023-07-20T01:16:43;100251.44;;;22.68;58.68
66689;BME280;53587;59.318;18.084;2023-07-20T01:19:09;100250.31;;;22.70;58.80
66689;BME280;53587;59.318;18.084;2023-07-20T01:21:37;100250.31;;;22.70;58.86
66689;BME280;53587;59.318;18.084;2023-07-20T01:24:11;100251.94;;;22.71;58.48
66689;BME280;53587;59.318;18.084;2023-07-20T01:32:02;100250.31;;;22.70;58.53
66689;BME280;53587;59.318;18.084;2023-07-20T01:34:29;100243.94;;;22.69;58.81
66689;BME280;53587;59.318;18.084;2023-07-20T01:36:54;100245.41;;;22.66;59.00
66689;BME280;53587;59.318;18.084;2023-07-20T01:39:20;100247.03;;;22.67;58.88
66689;BME280;53587;59.318;18.084;2023-07-20T01:41:46;100244.75;;;22.70;58.50
66689;BME280;53587;59.318;18.084;2023-07-20T01:44:12;100240.34;;;22.68;58.62
66689;BME280;53587;59.318;18.084;2023-07-20T01:46:37;100242.28;;;22.68;58.87
66689;BME280;53587;59.318;18.084;2023-07-20T01:49:03;100240.34;;;22.68;58.67
66689;BME280;53587;59.318;18.084;2023-07-20T01:51:28;100237.56;;;22.68;58.77
66689;BME280;53587;59.318;18.084;2023-07-20T01:53:53;100237.56;;;22.68;58.65
66689;BME280;53587;59.318;18.084;2023-07-20T01:56:19;100236.72;;;22.68;58.61
66689;BME280;53587;59.318;18.084;2023-07-20T01:58:44;100232.81;;;22.69;58.87
66689;BME280;53587;59.318;18.084;2023-07-20T02:01:09;100233.66;;;22.70;59.13
66689;BME280;53587;59.318;18.084;2023-07-20T02:03:34;100230.38;;;22.67;59.01
66689;BME280;53587;59.318;18.084;2023-07-20T02:06:00;100229.25;;;22.68;58.84
66689;BME280;53587;59.318;18.084;2023-07-20T02:08:25;100223.69;;;22.68;58.57
66689;BME280;53587;59.318;18.084;2023-07-20T02:10:51;100232.00;;;22.68;58.90
66689;BME280;53587;59.318;18.084;2023-07-20T02:13:16;100226.47;;;22.68;58.30
66689;BME280;53587;59.318;18.084;2023-07-20T02:15:42;100220.91;;;22.68;58.95
66689;BME280;53587;59.318;18.084;2023-07-20T02:18:12;100223.69;;;22.68;58.38
66689;BME280;53587;59.318;18.084;2023-07-20T02:20:37;100232.00;;;22.68;59.00
66689;BME280;53587;59.318;18.084;2023-07-20T02:23:02;100226.47;;;22.68;59.04
66689;BME280;53587;59.318;18.084;2023-07-20T02:25:27;100220.91;;;22.68;58.61
66689;BME280;53587;59.318;18.084;2023-07-20T02:27:52;100222.53;;;22.70;58.89
66689;BME280;53587;59.318;18.084;2023-07-20T02:30:18;100233.66;;;22.70;58.60
66689;BME280;53587;59.318;18.084;2023-07-20T02:32:43;100232.00;;;22.68;59.25
66689;BME280;53587;59.318;18.084;2023-07-20T02:35:13;100219.75;;;22.70;58.69
66689;BME280;53587;59.318;18.084;2023-07-20T02:37:38;100228.09;;;22.70;58.80
66689;BME280;53587;59.318;18.084;2023-07-20T02:40:04;100220.91;;;22.68;58.94
66689;BME280;53587;59.318;18.084;2023-07-20T02:42:29;100220.91;;;22.68;58.61
66689;BME280;53587;59.318;18.084;2023-07-20T02:44:55;100221.72;;;22.69;59.07
66689;BME280;53587;59.318;18.084;2023-07-20T02:47:20;100218.13;;;22.68;58.63
66689;BME280;53587;59.318;18.084;2023-07-20T02:49:45;100222.84;;;22.68;58.38
66689;BME280;53587;59.318;18.084;2023-07-20T02:52:10;100223.69;;;22.68;58.87
66689;BME280;53587;59.318;18.084;2023-07-20T02:54:36;100218.13;;;22.68;58.29
66689;BME280;53587;59.318;18.084;2023-07-20T02:57:01;100222.53;;;22.70;58.46
66689;BME280;53587;59.318;18.084;2023-07-20T02:59:27;100218.94;;;22.69;58.79
66689;BME280;53587;59.318;18.084;2023-07-20T03:01:52;100222.53;;;22.70;58.75
66689;BME280;53587;59.318;18.084;2023-07-20T03:04:17;100222.53;;;22.70;59.30
66689;BME280;53587;59.318;18.084;2023-07-20T03:06:42;100220.91;;;22.68;59.14
66689;BME280;53587;59.318;18.084;2023-07-20T03:09:08;100227.25;;;22.69;58.44
66689;BME280;53587;59.318;18.084;2023-07-20T03:11:34;100220.91;;;22.68;58.54
66689;BME280;53587;59.318;18.084;2023-07-20T03:13:59;100222.53;;;22.70;58.20
66689;BME280;53587;59.318;18.084;2023-07-20T03:16:24;100221.72;;;22.69;58.19
66689;BME280;53587;59.318;18.084;2023-07-20T03:18:50;100222.53;;;22.70;58.98
66689;BME280;53587;59.318;18.084;2023-07-20T03:21:16;100222.53;;;22.70;58.29
66689;BME280;53587;59.318;18.084;2023-07-20T03:23:41;100228.09;;;22.70;58.36
66689;BME280;53587;59.318;18.084;2023-07-20T03:26:07;100219.75;;;22.70;58.78
66689;BME280;53587;59.318;18.084;2023-07-20T03:28:33;100228.09;;;22.70;58.48
66689;BME280;53587;59.318;18.084;2023-07-20T03:30:59;100226.94;;;22.71;58.68
66689;BME280;53587;59.318;18.084;2023-07-20T03:33:28;100228.09;;;22.70;59.10
66689;BME280;53587;59.318;18.084;2023-07-20T03:35:54;100226.47;;;22.68;58.27
66689;BME280;53587;59.318;18.084;2023-07-20T03:38:19;100226.94;;;22.71;58.57
66689;BME280;53587;59.318;18.084;2023-07-20T03:40:55;100227.75;;;22.71;58.89
66689;BME280;53587;59.318;18.084;2023-07-20T03:43:21;100226.94;;;22.71;58.49
66689;BME280;53587;59.318;18.084;2023-07-20T03:45:47;100224.16;;;22.71;58.85
66689;BME280;53587;59.318;18.084;2023-07-20T03:48:13;100224.16;;;22.71;59.23
66689;BME280;53587;59.318;18.084;2023-07-20T03:50:38;100228.09;;;22.70;58.87
66689;BME280;53587;59.318;18.084;2023-07-20T03:53:03;100239.66;;;22.72;58.68
66689;BME280;53587;59.318;18.084;2023-07-20T03:55:29;100240.00;;;22.70;58.37
66689;BME280;53587;59.318;18.084;2023-07-20T03:57:54;100215.84;;;22.71;58.77
66689;BME280;53587;59.318;18.084;2023-07-20T04:00:19;100223.34;;;22.70;58.65
66689;BME280;53587;59.318;18.084;2023-07-20T04:02:44;100224.16;;;22.71;58.56
66689;BME280;53587;59.318;18.084;2023-07-20T04:05:10;100230.53;;;22.71;58.83
66689;BME280;53587;59.318;18.084;2023-07-20T04:07:35;100221.38;;;22.71;58.56
66689;BME280;53587;59.318;18.084;2023-07-20T04:10:00;100224.97;;;22.71;59.02
66689;BME280;53587;59.318;18.084;2023-07-20T04:12:25;100218.63;;;22.71;58.67
66689;BME280;53587;59.318;18.084;2023-07-20T04:14:51;100219.41;;;22.71;58.51
66689;BME280;53587;59.318;18.084;2023-07-20T04:17:16;100217.78;;;22.70;59.10
66689;BME280;53587;59.318;18.084;2023-07-20T04:19:41;100224.16;;;22.71;58.66
66689;BME280;53587;59.318;18.084;2023-07-20T04:22:07;100222.53;;;22.70;59.25
66689;BME280;53587;59.318;18.084;2023-07-20T04:24:32;100218.47;;;22.67;58.93
66689;BME280;53587;59.318;18.084;2023-07-20T04:26:58;100214.84;;;22.66;58.79
66689;BME280;53587;59.318;18.084;2023-07-20T04:29:23;100217.63;;;22.66;58.73
66689;BME280;53587;59.318;18.084;2023-07-20T04:31:48;100213.22;;;22.65;58.74
66689;BME280;53587;59.318;18.084;2023-07-20T04:34:13;100217.63;;;22.66;58.78
66689;BME280;53587;59.318;18.084;2023-07-20T04:36:38;100224.03;;;22.67;58.63
66689;BME280;53587;59.318;18.084;2023-07-20T04:39:04;100216.50;;;22.67;59.05
66689;BME280;53587;59.318;18.084;2023-07-20T04:41:30;100212.09;;;22.66;58.73
66689;BME280;53587;59.318;18.084;2023-07-20T04:43:55;100212.09;;;22.66;58.67
66689;BME280;53587;59.318;18.084;2023-07-20T04:46:20;100207.38;;;22.67;59.43
66689;BME280;53587;59.318;18.084;2023-07-20T04:48:46;100216.16;;;22.69;59.61
66689;BME280;53587;59.318;18.084;2023-07-20T04:51:12;100199.84;;;22.67;58.65
66689;BME280;53587;59.318;18.084;2023-07-20T04:53:38;100208.16;;;22.67;58.47
66689;BME280;53587;59.318;18.084;2023-07-20T04:56:03;100199.84;;;22.67;58.83
66689;BME280;53587;59.318;18.084;2023-07-20T04:58:28;100208.16;;;22.67;58.99
66689;BME280;53587;59.318;18.084;2023-07-20T05:00:53;100199.84;;;22.67;58.94
66689;BME280;53587;59.318;18.084;2023-07-20T05:03:18;100205.38;;;22.67;58.68
66689;BME280;53587;59.318;18.084;2023-07-20T05:05:44;100199.84;;;22.67;58.48
66689;BME280;53587;59.318;18.084;2023-07-20T05:08:09;100203.41;;;22.68;58.57
66689;BME280;53587;59.318;18.084;2023-07-20T05:10:34;100210.94;;;22.67;58.56
66689;BME280;53587;59.318;18.084;2023-07-20T05:13:00;100208.97;;;22.68;58.94
66689;BME280;53587;59.318;18.084;2023-07-20T05:15:25;100200.97;;;22.66;58.82
66689;BME280;53587;59.318;18.084;2023-07-20T05:17:50;100205.38;;;22.67;58.78
66689;BME280;53587;59.318;18.084;2023-07-20T05:20:15;100207.38;;;22.67;59.07
66689;BME280;53587;59.318;18.084;2023-07-20T05:22:40;100209.78;;;22.68;59.67
66689;BME280;53587;59.318;18.084;2023-07-20T05:25:09;100211.44;;;22.70;59.78
66689;BME280;53587;59.318;18.084;2023-07-20T05:27:38;100204.72;;;22.71;60.03
66689;BME280;53587;59.318;18.084;2023-07-20T05:30:04;100214.66;;;22.72;59.28
66689;BME280;53587;59.318;18.084;2023-07-20T05:32:30;100207.50;;;22.71;59.80
66689;BME280;53587;59.318;18.084;2023-07-20T05:34:55;100203.56;;;22.72;59.72
66689;BME280;53587;59.318;18.084;2023-07-20T05:37:20;100199.63;;;22.73;60.04
66689;BME280;53587;59.318;18.084;2023-07-20T05:39:46;100201.25;;;22.74;59.67
66689;BME280;53587;59.318;18.084;2023-07-20T05:42:11;100195.72;;;22.74;59.73
66689;BME280;53587;59.318;18.084;2023-07-20T05:44:36;100195.06;;;22.77;60.03
66689;BME280;53587;59.318;18.084;2023-07-20T05:47:01;100195.38;;;22.75;59.51
66689;BME280;53587;59.318;18.084;2023-07-20T05:49:27;100204.53;;;22.76;60.28
66689;BME280;53587;59.318;18.084;2023-07-20T05:51:52;100196.19;;;22.76;59.67
66689;BME280;53587;59.318;18.084;2023-07-20T05:54:18;100205.34;;;22.76;59.54
66689;BME280;53587;59.318;18.084;2023-07-20T05:56:45;100199.78;;;22.76;60.32
66689;BME280;53587;59.318;18.084;2023-07-20T05:59:10;100204.53;;;22.76;59.75
66689;BME280;53587;59.318;18.084;2023-07-20T06:01:35;100205.34;;;22.76;60.31
66689;BME280;53587;59.318;18.084;2023-07-20T06:04:00;100198.97;;;22.76;59.74
66689;BME280;53587;59.318;18.084;2023-07-20T06:06:26;100209.25;;;22.75;60.29
66689;BME280;53587;59.318;18.084;2023-07-20T06:08:51;100200.59;;;22.77;60.31
66689;BME280;53587;59.318;18.084;2023-07-20T06:11:16;100202.22;;;22.78;60.32
66689;BME280;53587;59.318;18.084;2023-07-20T06:13:42;100201.41;;;22.77;59.64
66689;BME280;53587;59.318;18.084;2023-07-20T06:16:08;100202.22;;;22.78;60.10
66689;BME280;53587;59.318;18.084;2023-07-20T06:18:33;100199.44;;;22.78;60.69
66689;BME280;53587;59.318;18.084;2023-07-20T06:20:59;100200.25;;;22.78;60.00
66689;BME280;53587;59.318;18.084;2023-07-20T06:23:24;100201.41;;;22.77;60.55
66689;BME280;53587;59.318;18.084;2023-07-20T06:25:49;100206.63;;;22.79;60.23
66689;BME280;53587;59.318;18.084;2023-07-20T06:28:14;100208.59;;;22.78;60.37
66689;BME280;53587;59.318;18.084;2023-07-20T06:30:40;100203.03;;;22.78;60.22
66689;BME280;53587;59.318;18.084;2023-07-20T06:33:05;100203.84;;;22.79;60.81
66689;BME280;53587;59.318;18.084;2023-07-20T06:35:30;100188.00;;;22.79;60.68
66689;BME280;53587;59.318;18.084;2023-07-20T06:37:55;100199.91;;;22.80;60.10
66689;BME280;53587;59.318;18.084;2023-07-20T06:40:21;100192.72;;;22.79;60.67
66689;BME280;53587;59.318;18.084;2023-07-20T06:42:46;100189.16;;;22.78;60.38
66689;BME280;53587;59.318;18.084;2023-07-20T06:45:12;100186.38;;;22.78;59.88
66689;BME280;53587;59.318;18.084;2023-07-20T06:47:38;100189.63;;;22.80;60.42
66689;BME280;53587;59.318;18.084;2023-07-20T06:50:03;100188.81;;;22.80;60.70
66689;BME280;53587;59.318;18.084;2023-07-20T06:52:28;100190.44;;;22.81;60.21
66689;BME280;53587;59.318;18.084;2023-07-20T06:54:54;100196.00;;;22.81;60.59
66689;BME280;53587;59.318;18.084;2023-07-20T06:57:19;100199.56;;;22.81;60.92
66689;BME280;53587;59.318;18.084;2023-07-20T06:59:44;100184.88;;;22.81;60.21
66689;BME280;53587;59.318;18.084;2023-07-20T07:02:09;100196.00;;;22.81;60.42
66689;BME280;53587;59.318;18.084;2023-07-20T07:04:35;100191.59;;;22.80;60.90
66689;BME280;53587;59.318;18.084;2023-07-20T07:07:00;100188.47;;;22.81;61.37
66689;BME280;53587;59.318;18.084;2023-07-20T07:09:25;100179.34;;;22.81;61.38
66689;BME280;53587;59.318;18.084;2023-07-20T07:11:50;100191.25;;;22.81;60.70
66689;BME280;53587;59.318;18.084;2023-07-20T07:14:16;100186.53;;;22.82;60.72
66689;BME280;53587;59.318;18.084;2023-07-20T07:16:41;100186.53;;;22.82;61.45
66689;BME280;53587;59.318;18.084;2023-07-20T07:19:06;100186.53;;;22.82;61.30
66689;BME280;53587;59.318;18.084;2023-07-20T07:21:33;100183.75;;;22.82;60.54
66689;BME280;53587;59.318;18.084;2023-07-20T07:23:58;100187.31;;;22.82;60.86
66689;BME280;53587;59.318;18.084;2023-07-20T07:26:25;100187.31;;;22.82;61.57
66689;BME280;53587;59.318;18.084;2023-07-20T07:28:50;100193.72;;;22.83;60.65
66689;BME280;53587;59.318;18.084;2023-07-20T07:31:15;100193.72;;;22.83;60.66
66689;BME280;53587;59.318;18.084;2023-07-20T07:33:40;100188.16;;;22.83;60.95
66689;BME280;53587;59.318;18.084;2023-07-20T07:36:06;100185.38;;;22.83;60.62
66689;BME280;53587;59.318;18.084;2023-07-20T07:38:31;100188.94;;;22.83;61.00
66689;BME280;53587;59.318;18.084;2023-07-20T07:40:57;100186.97;;;22.84;61.00
66689;BME280;53587;59.318;18.084;2023-07-20T07:43:22;100193.72;;;22.83;61.20
66689;BME280;53587;59.318;18.084;2023-07-20T07:45:47;100190.59;;;22.84;60.92
66689;BME280;53587;59.318;18.084;2023-07-20T07:48:13;100186.16;;;22.83;61.05
66689;BME280;53587;59.318;18.084;2023-07-20T07:50:39;100189.75;;;22.84;60.81
66689;BME280;53587;59.318;18.084;2023-07-20T07:53:05;100178.63;;;22.84;61.10
66689;BME280;53587;59.318;18.084;2023-07-20T07:55:30;100181.41;;;22.84;61.19
66689;BME280;53587;59.318;18.084;2023-07-20T07:57:55;100178.63;;;22.84;61.04
66689;BME280;53587;59.318;18.084;2023-07-20T08:00:21;100184.19;;;22.84;61.27
66689;BME280;53587;59.318;18.084;2023-07-20T08:02:46;100186.97;;;22.84;61.39
66689;BME280;53587;59.318;18.084;2023-07-20T08:05:13;100189.75;;;22.84;61.29
66689;BME280;53587;59.318;18.084;2023-07-20T08:07:38;100178.63;;;22.84;60.45
66689;BME280;53587;59.318;18.084;2023-07-20T08:10:04;100181.41;;;22.84;60.99
66689;BME280;53587;59.318;18.084;2023-07-20T08:12:30;100185.03;;;22.84;60.74
66689;BME280;53587;59.318;18.084;2023-07-20T08:14:55;100174.72;;;22.85;60.77
66689;BME280;53587;59.318;18.084;2023-07-20T08:17:20;100186.97;;;22.84;60.79
66689;BME280;53587;59.318;18.084;2023-07-20T08:19:46;100178.31;;;22.86;60.95
66689;BME280;53587;59.318;18.084;2023-07-20T08:22:11;100180.28;;;22.85;61.02
66689;BME280;53587;59.318;18.084;2023-07-20T08:24:40;100178.63;;;22.84;61.28
66689;BME280;53587;59.318;18.084;2023-07-20T08:27:05;100183.06;;;22.85;60.70
66689;BME280;53587;59.318;18.084;2023-07-20T08:29:31;100180.28;;;22.85;60.72
66689;BME280;53587;59.318;18.084;2023-07-20T08:31:56;100173.91;;;22.84;60.40
66689;BME280;53587;59.318;18.084;2023-07-20T08:34:21;100182.25;;;22.84;60.36
66689;BME280;53587;59.318;18.084;2023-07-20T08:36:46;100191.38;;;22.85;60.55
66689;BME280;53587;59.318;18.084;2023-07-20T08:39:12;100183.06;;;22.85;61.24
66689;BME280;53587;59.318;18.084;2023-07-20T08:41:37;100183.06;;;22.85;60.57
66689;BME280;53587;59.318;18.084;2023-07-20T08:44:04;100185.81;;;22.85;60.53
66689;BME280;53587;59.318;18.084;2023-07-20T08:46:29;100188.28;;;22.87;60.38
66689;BME280;53587;59.318;18.084;2023-07-20T08:48:55;100185.81;;;22.85;60.83
66689;BME280;53587;59.318;18.084;2023-07-20T08:51:21;100180.28;;;22.85;60.24
66689;BME280;53587;59.318;18.084;2023-07-20T08:53:47;100187.47;;;22.86;60.48
66689;BME280;53587;59.318;18.084;2023-07-20T08:56:13;100183.06;;;22.85;60.35
66689;BME280;53587;59.318;18.084;2023-07-20T08:58:39;100194.66;;;22.87;60.16
66689;BME280;53587;59.318;18.084;2023-07-20T09:01:04;100184.69;;;22.86;60.97
66689;BME280;53587;59.318;18.084;2023-07-20T09:03:29;100188.28;;;22.87;60.37
66689;BME280;53587;59.318;18.084;2023-07-20T09:05:55;100188.28;;;22.87;60.29
66689;BME280;53587;59.318;18.084;2023-07-20T09:08:20;100189.09;;;22.87;60.53
66689;BME280;53587;59.318;18.084;2023-07-20T09:10:45;100187.94;;;22.88;59.81
66689;BME280;53587;59.318;18.084;2023-07-20T09:13:13;100190.72;;;22.88;59.82
66689;BME280;53587;59.318;18.084;2023-07-20T09:15:39;100182.75;;;22.87;60.07
66689;BME280;53587;59.318;18.084;2023-07-20T09:18:04;100184.34;;;22.88;59.75
66689;BME280;53587;59.318;18.084;2023-07-20T09:20:30;100185.16;;;22.88;59.97
66689;BME280;53587;59.318;18.084;2023-07-20T09:22:56;100185.16;;;22.88;59.79
66689;BME280;53587;59.318;18.084;2023-07-20T09:25:22;100179.63;;;22.88;59.74
66689;BME280;53587;59.318;18.084;2023-07-20T09:27:48;100184.03;;;22.89;60.27
66689;BME280;53587;59.318;18.084;2023-07-20T09:30:14;100193.50;;;22.88;60.37
66689;BME280;53587;59.318;18.084;2023-07-20T09:32:44;100182.38;;;22.88;59.92
66689;BME280;53587;59.318;18.084;2023-07-20T09:35:13;100185.16;;;22.88;59.62
66689;BME280;53587;59.318;18.084;2023-07-20T09:37:39;100193.97;;;22.90;60.33
66689;BME280;53587;59.318;18.084;2023-07-20T09:40:05;100189.56;;;22.89;60.07
66689;BME280;53587;59.318;18.084;2023-07-20T09:42:31;100188.41;;;22.90;59.55
66689;BME280;53587;59.318;18.084;2023-07-20T09:44:56;100187.59;;;22.90;60.03
66689;BME280;53587;59.318;18.084;2023-07-20T09:47:22;100185.63;;;22.90;59.83
66689;BME280;53587;59.318;18.084;2023-07-20T09:49:48;100182.03;;;22.90;60.04
66689;BME280;53587;59.318;18.084;2023-07-20T09:52:13;100186.44;;;22.91;60.06
66689;BME280;53587;59.318;18.084;2023-07-20T09:54:38;100184.47;;;22.91;59.68
66689;BME280;53587;59.318;18.084;2023-07-20T09:57:04;100177.28;;;22.90;60.26
66689;BME280;53587;59.318;18.084;2023-07-20T09:59:31;100173.72;;;22.90;59.84
66689;BME280;53587;59.318;18.084;2023-07-20T10:01:57;100188.41;;;22.90;60.50
66689;BME280;53587;59.318;18.084;2023-07-20T10:04:23;100188.41;;;22.90;59.88
66689;BME280;53587;59.318;18.084;2023-07-20T10:06:49;100180.91;;;22.91;60.03
66689;BME280;53587;59.318;18.084;2023-07-20T10:09:15;100171.72;;;22.90;59.55
66689;BME280;53587;59.318;18.084;2023-07-20T10:11:43;100180.06;;;22.90;59.76
66689;BME280;53587;59.318;18.084;2023-07-20T10:14:08;100170.28;;;22.93;59.34
66689;BME280;53587;59.318;18.084;2023-07-20T10:16:36;100168.63;;;22.92;59.96
66689;BME280;53587;59.318;18.084;2023-07-20T10:21:35;100173.06;;;22.93;59.69
66689;BME280;53587;59.318;18.084;2023-07-20T10:24:02;100176.63;;;22.93;59.54
66689;BME280;53587;59.318;18.084;2023-07-20T10:26:28;100185.75;;;22.94;59.87
66689;BME280;53587;59.318;18.084;2023-07-20T10:28:53;100175.81;;;22.93;59.43
66689;BME280;53587;59.318;18.084;2023-07-20T10:31:19;100178.25;;;22.94;59.83
66689;BME280;53587;59.318;18.084;2023-07-20T10:33:45;100173.84;;;22.93;59.39
66689;BME280;53587;59.318;18.084;2023-07-20T10:36:11;100176.63;;;22.93;59.57
66689;BME280;53587;59.318;18.084;2023-07-20T10:41:21;100173.06;;;22.93;59.23
66689;BME280;53587;59.318;18.084;2023-07-20T10:43:47;100182.19;;;22.93;59.36
66689;BME280;53587;59.318;18.084;2023-07-20T10:46:12;100180.56;;;22.92;59.39
66689;BME280;53587;59.318;18.084;2023-07-20T10:51:22;100176.63;;;22.93;59.07
66689;BME280;53587;59.318;18.084;2023-07-20T10:53:48;100193.28;;;22.93;58.54
66689;BME280;53587;59.318;18.084;2023-07-20T10:56:15;100171.06;;;22.93;58.59
66689;BME280;53587;59.318;18.084;2023-07-20T10:58:40;100185.75;;;22.94;58.76
66689;BME280;53587;59.318;18.084;2023-07-20T11:01:08;100191.00;;;22.95;59.33
66689;BME280;53587;59.318;18.084;2023-07-20T11:03:34;100183.00;;;22.94;58.76
66689;BME280;53587;59.318;18.084;2023-07-20T11:06:29;100182.66;;;22.95;59.01
66689;BME280;53587;59.318;18.084;2023-07-20T11:08:45;100191.00;;;22.95;58.17
66689;BME280;53587;59.318;18.084;2023-07-20T11:11:26;100185.44;;;22.95;59.05
66689;BME280;53587;59.318;18.084;2023-07-20T11:13:56;100172.69;;;22.94;58.90
66689;BME280;53587;59.318;18.084;2023-07-20T11:16:32;100181.03;;;22.94;59.39
66689;BME280;53587;59.318;18.084;2023-07-20T11:18:57;100189.81;;;22.96;58.66
66689;BME280;53587;59.318;18.084;2023-07-20T11:21:23;100196.56;;;22.95;59.04
66689;BME280;53587;59.318;18.084;2023-07-20T11:23:49;100186.25;;;22.96;58.93
66689;BME280;53587;59.318;18.084;2023-07-20T11:26:14;100192.59;;;22.96;59.20
66689;BME280;53587;59.318;18.084;2023-07-20T11:28:40;100187.06;;;22.96;59.19
66689;BME280;53587;59.318;18.084;2023-07-20T11:31:06;100192.16;;;22.94;59.04
66689;BME280;53587;59.318;18.084;2023-07-20T11:33:31;100196.56;;;22.95;59.41
66689;BME280;53587;59.318;18.084;2023-07-20T11:35:56;100197.72;;;22.94;59.26
66689;BME280;53587;59.318;18.084;2023-07-20T11:38:23;100195.72;;;22.95;59.14
66689;BME280;53587;59.318;18.084;2023-07-20T11:40:48;100201.28;;;22.95;59.13
66689;BME280;53587;59.318;18.084;2023-07-20T11:43:14;100198.16;;;22.96;59.05
66689;BME280;53587;59.318;18.084;2023-07-20T11:45:40;100197.38;;;22.96;58.77
66689;BME280;53587;59.318;18.084;2023-07-20T11:48:05;100192.59;;;22.96;59.17
66689;BME280;53587;59.318;18.084;2023-07-20T11:50:30;100202.91;;;22.96;58.55
66689;BME280;53587;59.318;18.084;2023-07-20T11:52:55;100204.56;;;22.97;58.82
66689;BME280;53587;59.318;18.084;2023-07-20T11:55:21;100199.78;;;22.97;58.96
66689;BME280;53587;59.318;18.084;2023-07-20T11:58:02;100203.72;;;22.96;59.38
66689;BME280;53587;59.318;18.084;2023-07-20T12:00:27;100199.00;;;22.97;59.22
66689;BME280;53587;59.318;18.084;2023-07-20T12:02:53;100206.97;;;22.98;59.24
66689;BME280;53587;59.318;18.084;2023-07-20T12:05:19;100199.78;;;22.97;59.10
66689;BME280;53587;59.318;18.084;2023-07-20T12:07:44;100200.63;;;22.98;58.82
66689;BME280;53587;59.318;18.084;2023-07-20T12:10:10;100199.78;;;22.97;58.82
66689;BME280;53587;59.318;18.084;2023-07-20T12:12:39;100190.31;;;22.98;58.96
66689;BME280;53587;59.318;18.084;2023-07-20T12:15:14;100191.16;;;22.99;58.80
66689;BME280;53587;59.318;18.084;2023-07-20T12:17:43;100183.97;;;22.98;59.43
66689;BME280;53587;59.318;18.084;2023-07-20T12:20:09;100189.50;;;22.98;59.38
66689;BME280;53587;59.318;18.084;2023-07-20T12:22:38;100191.16;;;22.99;59.03
66689;BME280;53587;59.318;18.084;2023-07-20T12:25:05;100182.81;;;22.99;59.11
66689;BME280;53587;59.318;18.084;2023-07-20T12:27:30;100177.25;;;22.99;58.93
66689;BME280;53587;59.318;18.084;2023-07-20T12:29:56;100184.75;;;22.98;58.75
66689;BME280;53587;59.318;18.084;2023-07-20T12:32:22;100183.97;;;22.98;59.18
66689;BME280;53587;59.318;18.084;2023-07-20T12:34:47;100188.38;;;22.99;59.35
66689;BME280;53587;59.318;18.084;2023-07-20T12:37:13;100179.19;;;22.98;59.34
66689;BME280;53587;59.318;18.084;2023-07-20T12:39:38;100182.81;;;22.99;59.22
66689;BME280;53587;59.318;18.084;2023-07-20T12:42:04;100189.16;;;22.99;58.44
66689;BME280;53587;59.318;18.084;2023-07-20T12:44:29;100182.47;;;23.00;59.33
66689;BME280;53587;59.318;18.084;2023-07-20T12:46:55;100192.75;;;23.00;59.02